Terminal Aerodrome Forecast
Issued by NWS

Home | Current Version | Previous Version | Graphics & Text | Print | Product List | Glossary On
Versions: 1 2 3 4 5 6 7 8 9 10 11 12 13 14 15 16 17 18 19 20 21 22
234
FTUS43 KABR 221120
TAFPIR
TAF
KPIR 221120Z 2212/2312 05012KT P6SM VCTS FEW010 SCT070CB BKN120
     FM221500 36011KT P6SM VCTS BKN070CB
     FM221700 32013KT P6SM BKN140
     FM231100 31010KT P6SM SCT110=

USA.gov is the U.S. government's official web portal to all federal, state and local government web resources and services.